sensor_id;sensor_type;location;lat;lon;timestamp;pressure;altitude;pressure_sealevel;temperature;humidity
19811;BME280;10065;49.632;8.346;2023-05-25T00:00:40;101177.88;;;15.58;49.98
19811;BME280;10065;49.632;8.346;2023-05-25T00:03:26;101167.09;;;15.42;50.63
19811;BME280;10065;49.632;8.346;2023-05-25T00:05:54;101177.63;;;15.35;50.90
19811;BME280;10065;49.632;8.346;2023-05-25T00:08:23;101171.13;;;15.38;50.52
19811;BME280;10065;49.632;8.346;2023-05-25T00:10:52;101170.06;;;15.31;51.21
19811;BME280;10065;49.632;8.346;2023-05-25T00:13:20;101179.22;;;15.20;51.51
19811;BME280;10065;49.632;8.346;2023-05-25T00:15:47;101171.44;;;15.35;50.97
19811;BME280;10065;49.632;8.346;2023-05-25T00:18:15;101171.25;;;15.28;50.93
19811;BME280;10065;49.632;8.346;2023-05-25T00:20:44;101168.56;;;15.28;51.31
19811;BME280;10065;49.632;8.346;2023-05-25T00:23:13;101165.50;;;15.15;51.66
19811;BME280;10065;49.632;8.346;2023-05-25T00:25:41;101170.34;;;15.12;51.99
19811;BME280;10065;49.632;8.346;2023-05-25T00:28:11;101164.53;;;15.24;51.43
19811;BME280;10065;49.632;8.346;2023-05-25T00:30:38;101167.91;;;15.34;51.41
19811;BME280;10065;49.632;8.346;2023-05-25T00:33:06;101160.00;;;15.17;51.73
19811;BME280;10065;49.632;8.346;2023-05-25T00:35:36;101164.31;;;15.10;52.17
19811;BME280;10065;49.632;8.346;2023-05-25T00:38:03;101165.75;;;14.96;52.69
19811;BME280;10065;49.632;8.346;2023-05-25T00:40:32;101164.16;;;15.11;52.21
19811;BME280;10065;49.632;8.346;2023-05-25T00:42:59;101161.97;;;15.06;52.14
19811;BME280;10065;49.632;8.346;2023-05-25T00:45:29;101166.81;;;15.03;52.26
19811;BME280;10065;49.632;8.346;2023-05-25T00:47:57;101164.75;;;14.97;52.47
19811;BME280;10065;49.632;8.346;2023-05-25T00:50:36;101167.31;;;15.06;52.17
19811;BME280;10065;49.632;8.346;2023-05-25T00:53:04;101173.59;;;14.97;52.20
19811;BME280;10065;49.632;8.346;2023-05-25T00:55:35;101174.09;;;14.93;52.62
19811;BME280;10065;49.632;8.346;2023-05-25T00:58:04;101174.09;;;14.93;52.87
19811;BME280;10065;49.632;8.346;2023-05-25T01:00:33;101170.47;;;15.02;52.59
19811;BME280;10065;49.632;8.346;2023-05-25T01:03:05;101171.00;;;14.80;53.08
19811;BME280;10065;49.632;8.346;2023-05-25T01:05:39;101177.38;;;14.87;53.08
19811;BME280;10065;49.632;8.346;2023-05-25T01:08:10;101167.66;;;14.78;53.28
19811;BME280;10065;49.632;8.346;2023-05-25T01:10:41;101172.38;;;14.84;53.41
19811;BME280;10065;49.632;8.346;2023-05-25T01:13:09;101174.47;;;14.72;53.45
19811;BME280;10065;49.632;8.346;2023-05-25T01:15:39;101171.69;;;14.82;53.18
19811;BME280;10065;49.632;8.346;2023-05-25T01:18:07;101179.63;;;14.65;54.07
19811;BME280;10065;49.632;8.346;2023-05-25T01:20:35;101179.63;;;14.65;53.96
19811;BME280;10065;49.632;8.346;2023-05-25T01:23:10;101188.72;;;14.55;54.43
19811;BME280;10065;49.632;8.346;2023-05-25T01:25:44;101186.69;;;14.75;53.87
19811;BME280;10065;49.632;8.346;2023-05-25T01:28:17;101187.50;;;14.75;54.11
19811;BME280;10065;49.632;8.346;2023-05-25T01:30:48;101183.47;;;14.45;55.02
19811;BME280;10065;49.632;8.346;2023-05-25T01:33:17;101180.56;;;14.56;54.94
19811;BME280;10065;49.632;8.346;2023-05-25T01:35:45;101185.78;;;14.66;54.94
19811;BME280;10065;49.632;8.346;2023-05-25T01:38:15;101179.50;;;14.75;54.68
19811;BME280;10065;49.632;8.346;2023-05-25T01:40:44;101181.78;;;14.70;54.98
19811;BME280;10065;49.632;8.346;2023-05-25T01:43:11;101180.56;;;14.56;55.67
19811;BME280;10065;49.632;8.346;2023-05-25T01:45:39;101186.72;;;14.57;55.86
19811;BME280;10065;49.632;8.346;2023-05-25T01:48:12;101186.28;;;14.69;55.49
19811;BME280;10065;49.632;8.346;2023-05-25T01:50:47;101195.44;;;14.59;55.87
19811;BME280;10065;49.632;8.346;2023-05-25T01:53:21;101205.66;;;14.46;56.30
19811;BME280;10065;49.632;8.346;2023-05-25T01:55:56;101203.72;;;14.38;56.48
19811;BME280;10065;49.632;8.346;2023-05-25T01:58:26;101205.50;;;14.29;57.20
19811;BME280;10065;49.632;8.346;2023-05-25T02:00:54;101207.28;;;14.39;56.93
19811;BME280;10065;49.632;8.346;2023-05-25T02:03:23;101194.97;;;14.46;56.62
19811;BME280;10065;49.632;8.346;2023-05-25T02:05:51;101187.78;;;14.64;56.27
19811;BME280;10065;49.632;8.346;2023-05-25T02:08:20;101200.53;;;14.52;56.27
19811;BME280;10065;49.632;8.346;2023-05-25T02:10:48;101185.06;;;14.38;57.13
19811;BME280;10065;49.632;8.346;2023-05-25T02:13:16;101183.94;;;14.41;56.88
19811;BME280;10065;49.632;8.346;2023-05-25T02:15:44;101192.94;;;14.40;57.18
19811;BME280;10065;49.632;8.346;2023-05-25T02:18:12;101190.53;;;14.37;57.32
19811;BME280;10065;49.632;8.346;2023-05-25T02:20:43;101193.50;;;14.51;56.90
19811;BME280;10065;49.632;8.346;2023-05-25T02:23:11;101184.84;;;14.49;56.82
19811;BME280;10065;49.632;8.346;2023-05-25T02:25:40;101184.75;;;14.59;56.78
19811;BME280;10065;49.632;8.346;2023-05-25T02:28:09;101184.69;;;14.51;57.03
19811;BME280;10065;49.632;8.346;2023-05-25T02:30:37;101184.59;;;14.43;57.56
19811;BME280;10065;49.632;8.346;2023-05-25T02:33:05;101180.81;;;14.45;57.21
19811;BME280;10065;49.632;8.346;2023-05-25T02:35:32;101179.50;;;14.49;57.12
19811;BME280;10065;49.632;8.346;2023-05-25T02:38:00;101184.84;;;14.49;57.28
19811;BME280;10065;49.632;8.346;2023-05-25T02:40:28;101182.03;;;14.33;57.69
19811;BME280;10065;49.632;8.346;2023-05-25T02:42:57;101173.69;;;14.36;57.60
19811;BME280;10065;49.632;8.346;2023-05-25T02:45:25;101176.31;;;14.28;58.17
19811;BME280;10065;49.632;8.346;2023-05-25T02:47:52;101176.59;;;14.25;58.24
19811;BME280;10065;49.632;8.346;2023-05-25T02:50:20;101172.22;;;14.16;58.58
19811;BME280;10065;49.632;8.346;2023-05-25T02:52:48;101174.25;;;14.22;58.40
19811;BME280;10065;49.632;8.346;2023-05-25T02:55:16;101189.19;;;14.32;58.59
19811;BME280;10065;49.632;8.346;2023-05-25T02:57:44;101189.22;;;14.15;58.81
19811;BME280;10065;49.632;8.346;2023-05-25T03:00:14;101192.47;;;14.09;59.01
19811;BME280;10065;49.632;8.346;2023-05-25T03:02:42;101188.97;;;14.08;59.01
19811;BME280;10065;49.632;8.346;2023-05-25T03:05:12;101187.84;;;14.11;59.02
19811;BME280;10065;49.632;8.346;2023-05-25T03:07:43;101190.97;;;14.24;58.55
19811;BME280;10065;49.632;8.346;2023-05-25T03:10:11;101190.78;;;14.08;59.03
19811;BME280;10065;49.632;8.346;2023-05-25T03:12:38;101188.03;;;14.17;58.74
19811;BME280;10065;49.632;8.346;2023-05-25T03:15:07;101193.25;;;14.19;58.97
19811;BME280;10065;49.632;8.346;2023-05-25T03:17:39;101188.06;;;14.00;59.66
19811;BME280;10065;49.632;8.346;2023-05-25T03:20:08;101187.13;;;14.09;59.36
19811;BME280;10065;49.632;8.346;2023-05-25T03:22:36;101195.41;;;14.15;59.06
19811;BME280;10065;49.632;8.346;2023-05-25T03:25:05;101191.88;;;14.15;58.96
19811;BME280;10065;49.632;8.346;2023-05-25T03:27:33;101194.69;;;14.13;59.07
19811;BME280;10065;49.632;8.346;2023-05-25T03:30:00;101194.16;;;14.10;59.36
19811;BME280;10065;49.632;8.346;2023-05-25T03:32:28;101192.00;;;14.31;58.67
19811;BME280;10065;49.632;8.346;2023-05-25T03:34:59;101187.47;;;14.06;59.29
19811;BME280;10065;49.632;8.346;2023-05-25T03:37:26;101192.19;;;14.12;58.99
19811;BME280;10065;49.632;8.346;2023-05-25T03:39:54;101193.88;;;14.13;58.93
19811;BME280;10065;49.632;8.346;2023-05-25T03:42:22;101194.06;;;14.19;58.88
19811;BME280;10065;49.632;8.346;2023-05-25T03:44:49;101197.03;;;14.16;58.89
19811;BME280;10065;49.632;8.346;2023-05-25T03:47:17;101194.56;;;14.15;59.17
19811;BME280;10065;49.632;8.346;2023-05-25T03:49:44;101191.63;;;13.90;59.72
19811;BME280;10065;49.632;8.346;2023-05-25T03:52:14;101192.72;;;13.98;59.77
19811;BME280;10065;49.632;8.346;2023-05-25T03:54:41;101200.72;;;13.98;59.63
19811;BME280;10065;49.632;8.346;2023-05-25T03:57:09;101196.91;;;13.82;60.13
19811;BME280;10065;49.632;8.346;2023-05-25T03:59:37;101209.31;;;13.91;59.93
19811;BME280;10065;49.632;8.346;2023-05-25T04:02:04;101206.00;;;13.89;60.18
19811;BME280;10065;49.632;8.346;2023-05-25T04:04:32;101204.53;;;13.77;60.58
19811;BME280;10065;49.632;8.346;2023-05-25T04:07:00;101211.53;;;13.78;60.79
19811;BME280;10065;49.632;8.346;2023-05-25T04:09:29;101220.44;;;13.87;60.29
19811;BME280;10065;49.632;8.346;2023-05-25T04:11:57;101227.97;;;13.91;60.11
19811;BME280;10065;49.632;8.346;2023-05-25T04:14:24;101234.69;;;13.96;60.02
19811;BME280;10065;49.632;8.346;2023-05-25T04:16:52;101243.97;;;13.91;60.21
19811;BME280;10065;49.632;8.346;2023-05-25T04:19:20;101237.03;;;13.81;60.61
19811;BME280;10065;49.632;8.346;2023-05-25T04:21:48;101246.94;;;13.71;61.10
19811;BME280;10065;49.632;8.346;2023-05-25T04:24:16;101249.53;;;13.80;60.80
19811;BME280;10065;49.632;8.346;2023-05-25T04:26:45;101246.28;;;13.86;60.50
19811;BME280;10065;49.632;8.346;2023-05-25T04:29:12;101253.78;;;13.73;60.91
19811;BME280;10065;49.632;8.346;2023-05-25T04:31:40;101246.13;;;13.88;60.82
19811;BME280;10065;49.632;8.346;2023-05-25T04:34:11;101257.22;;;13.83;60.90
19811;BME280;10065;49.632;8.346;2023-05-25T04:36:39;101256.94;;;13.86;60.84
19811;BME280;10065;49.632;8.346;2023-05-25T04:39:08;101244.88;;;13.82;61.15
19811;BME280;10065;49.632;8.346;2023-05-25T04:41:36;101254.50;;;13.93;61.02
19811;BME280;10065;49.632;8.346;2023-05-25T04:44:05;101258.94;;;14.02;60.65
19811;BME280;10065;49.632;8.346;2023-05-25T04:46:36;101252.75;;;14.02;60.45
19811;BME280;10065;49.632;8.346;2023-05-25T04:49:04;101259.22;;;14.17;60.50
19811;BME280;10065;49.632;8.346;2023-05-25T04:51:33;101269.53;;;14.12;60.40
19811;BME280;10065;49.632;8.346;2023-05-25T04:54:01;101263.66;;;14.08;60.63
19811;BME280;10065;49.632;8.346;2023-05-25T04:56:29;101268.00;;;14.27;60.32
19811;BME280;10065;49.632;8.346;2023-05-25T04:58:56;101261.38;;;14.13;60.42
19811;BME280;10065;49.632;8.346;2023-05-25T05:01:26;101261.75;;;14.18;60.21
19811;BME280;10065;49.632;8.346;2023-05-25T05:03:54;101266.84;;;14.12;60.47
19811;BME280;10065;49.632;8.346;2023-05-25T05:06:22;101268.84;;;14.10;60.67
19811;BME280;10065;49.632;8.346;2023-05-25T05:08:51;101267.00;;;14.28;60.24
19811;BME280;10065;49.632;8.346;2023-05-25T05:11:18;101263.31;;;14.39;60.13
19811;BME280;10065;49.632;8.346;2023-05-25T05:13:48;101261.88;;;14.35;60.10
19811;BME280;10065;49.632;8.346;2023-05-25T05:16:16;101263.97;;;14.23;60.32
19811;BME280;10065;49.632;8.346;2023-05-25T05:18:47;101269.38;;;14.31;60.21
19811;BME280;10065;49.632;8.346;2023-05-25T05:21:15;101270.06;;;14.33;60.22
19811;BME280;10065;49.632;8.346;2023-05-25T05:23:43;101267.09;;;14.54;59.60
19811;BME280;10065;49.632;8.346;2023-05-25T05:26:11;101271.94;;;14.50;59.56
19811;BME280;10065;49.632;8.346;2023-05-25T05:28:40;101273.44;;;14.53;59.32
19811;BME280;10065;49.632;8.346;2023-05-25T05:31:08;101275.09;;;14.54;59.15
19811;BME280;10065;49.632;8.346;2023-05-25T05:33:37;101280.28;;;14.55;59.11
19811;BME280;10065;49.632;8.346;2023-05-25T05:36:07;101283.78;;;14.74;58.44
19811;BME280;10065;49.632;8.346;2023-05-25T05:38:35;101283.63;;;14.75;58.35
19811;BME280;10065;49.632;8.346;2023-05-25T05:41:05;101290.16;;;14.81;58.19
19811;BME280;10065;49.632;8.346;2023-05-25T05:43:39;101285.75;;;14.72;58.10
19811;BME280;10065;49.632;8.346;2023-05-25T05:46:08;101288.50;;;14.80;57.77
19811;BME280;10065;49.632;8.346;2023-05-25T05:48:36;101284.03;;;14.88;57.18
19811;BME280;10065;49.632;8.346;2023-05-25T05:51:04;101293.09;;;14.95;57.25
19811;BME280;10065;49.632;8.346;2023-05-25T05:53:33;101292.28;;;14.95;57.01
19811;BME280;10065;49.632;8.346;2023-05-25T05:56:03;101289.97;;;15.00;57.15
19811;BME280;10065;49.632;8.346;2023-05-25T05:58:32;101288.53;;;15.14;56.98
19811;BME280;10065;49.632;8.346;2023-05-25T06:01:00;101288.41;;;15.15;56.75
19811;BME280;10065;49.632;8.346;2023-05-25T06:03:28;101294.13;;;15.20;57.23
19811;BME280;10065;49.632;8.346;2023-05-25T06:05:56;101304.81;;;15.20;56.98
19811;BME280;10065;49.632;8.346;2023-05-25T06:08:24;101296.84;;;15.28;56.96
19811;BME280;10065;49.632;8.346;2023-05-25T06:10:54;101299.69;;;15.35;56.94
19811;BME280;10065;49.632;8.346;2023-05-25T06:13:22;101294.34;;;15.35;56.45
19811;BME280;10065;49.632;8.346;2023-05-25T06:15:50;101291.69;;;15.35;56.53
19811;BME280;10065;49.632;8.346;2023-05-25T06:18:17;101301.38;;;15.36;56.58
19811;BME280;10065;49.632;8.346;2023-05-25T06:20:45;101288.34;;;15.67;56.22
19811;BME280;10065;49.632;8.346;2023-05-25T06:23:13;101305.63;;;15.80;55.73
19811;BME280;10065;49.632;8.346;2023-05-25T06:25:43;101299.94;;;15.84;55.25
19811;BME280;10065;49.632;8.346;2023-05-25T06:28:15;101304.78;;;15.80;55.56
19811;BME280;10065;49.632;8.346;2023-05-25T06:30:42;101312.81;;;15.80;54.96
19811;BME280;10065;49.632;8.346;2023-05-25T06:33:10;101307.16;;;15.91;54.54
19811;BME280;10065;49.632;8.346;2023-05-25T06:35:38;101305.50;;;15.90;54.70
19811;BME280;10065;49.632;8.346;2023-05-25T06:38:05;101302.16;;;15.96;54.57
19811;BME280;10065;49.632;8.346;2023-05-25T06:40:33;101311.38;;;16.10;55.00
19811;BME280;10065;49.632;8.346;2023-05-25T06:43:01;101306.22;;;16.16;54.63
19811;BME280;10065;49.632;8.346;2023-05-25T06:45:30;101302.88;;;16.23;56.10
19811;BME280;10065;49.632;8.346;2023-05-25T06:47:58;101297.03;;;16.27;54.53
19811;BME280;10065;49.632;8.346;2023-05-25T06:50:26;101303.75;;;16.31;54.04
19811;BME280;10065;49.632;8.346;2023-05-25T06:52:53;101304.25;;;16.35;53.66
19811;BME280;10065;49.632;8.346;2023-05-25T06:55:21;101305.25;;;16.42;53.58
19811;BME280;10065;49.632;8.346;2023-05-25T06:57:49;101303.25;;;16.44;53.11
19811;BME280;10065;49.632;8.346;2023-05-25T07:00:17;101305.75;;;16.45;53.02
19811;BME280;10065;49.632;8.346;2023-05-25T07:02:48;101304.44;;;16.49;53.30
19811;BME280;10065;49.632;8.346;2023-05-25T07:05:16;101305.94;;;16.60;52.79
19811;BME280;10065;49.632;8.346;2023-05-25T07:07:44;101312.31;;;16.59;52.58
19811;BME280;10065;49.632;8.346;2023-05-25T07:10:11;101309.66;;;16.67;52.47
19811;BME280;10065;49.632;8.346;2023-05-25T07:12:39;101303.63;;;16.73;52.10
19811;BME280;10065;49.632;8.346;2023-05-25T07:15:09;101312.66;;;16.80;52.03
19811;BME280;10065;49.632;8.346;2023-05-25T07:17:36;101309.66;;;16.83;51.98
19811;BME280;10065;49.632;8.346;2023-05-25T07:20:07;101306.63;;;16.95;51.86
19811;BME280;10065;49.632;8.346;2023-05-25T07:22:36;101306.63;;;17.03;51.59
19811;BME280;10065;49.632;8.346;2023-05-25T07:25:04;101309.59;;;17.08;51.10
19811;BME280;10065;49.632;8.346;2023-05-25T07:27:32;101316.31;;;17.20;51.11
19811;BME280;10065;49.632;8.346;2023-05-25T07:30:01;101321.66;;;17.20;50.40
19811;BME280;10065;49.632;8.346;2023-05-25T07:32:29;101313.09;;;17.24;50.50
19811;BME280;10065;49.632;8.346;2023-05-25T07:34:56;101313.28;;;17.23;50.37
19811;BME280;10065;49.632;8.346;2023-05-25T07:37:25;101304.22;;;17.32;50.21
19811;BME280;10065;49.632;8.346;2023-05-25T07:39:53;101307.72;;;17.41;50.06
19811;BME280;10065;49.632;8.346;2023-05-25T07:42:21;101309.53;;;17.48;49.68
19811;BME280;10065;49.632;8.346;2023-05-25T07:44:48;101301.78;;;17.53;49.80
19811;BME280;10065;49.632;8.346;2023-05-25T07:47:16;101306.81;;;17.64;49.68
19811;BME280;10065;49.632;8.346;2023-05-25T07:49:44;101311.31;;;17.72;49.34
19811;BME280;10065;49.632;8.346;2023-05-25T07:52:12;101311.94;;;17.82;49.46
19811;BME280;10065;49.632;8.346;2023-05-25T07:54:41;101304.34;;;17.86;48.74
19811;BME280;10065;49.632;8.346;2023-05-25T07:57:08;101312.03;;;17.97;48.99
19811;BME280;10065;49.632;8.346;2023-05-25T07:59:36;101315.66;;;18.04;48.24
19811;BME280;10065;49.632;8.346;2023-05-25T08:02:04;101314.09;;;18.18;47.46
19811;BME280;10065;49.632;8.346;2023-05-25T08:04:32;101319.09;;;18.21;47.34
19811;BME280;10065;49.632;8.346;2023-05-25T08:07:01;101314.88;;;18.26;47.19
19811;BME280;10065;49.632;8.346;2023-05-25T08:09:29;101315.09;;;18.39;47.13
19811;BME280;10065;49.632;8.346;2023-05-25T08:11:58;101312.00;;;18.51;46.89
19811;BME280;10065;49.632;8.346;2023-05-25T08:14:47;101319.88;;;18.60;46.95
19811;BME280;10065;49.632;8.346;2023-05-25T08:17:14;101316.09;;;18.69;46.83
19811;BME280;10065;49.632;8.346;2023-05-25T08:19:42;101316.69;;;18.79;47.00
19811;BME280;10065;49.632;8.346;2023-05-25T08:22:10;101310.88;;;18.91;47.07
19811;BME280;10065;49.632;8.346;2023-05-25T08:24:38;101319.81;;;19.06;46.26
19811;BME280;10065;49.632;8.346;2023-05-25T08:27:07;101318.53;;;19.16;46.07
19811;BME280;10065;49.632;8.346;2023-05-25T08:29:34;101325.28;;;19.27;45.91
19811;BME280;10065;49.632;8.346;2023-05-25T08:32:02;101313.34;;;19.30;44.81
19811;BME280;10065;49.632;8.346;2023-05-25T08:34:30;101309.53;;;19.39;44.84
19811;BME280;10065;49.632;8.346;2023-05-25T08:36:58;101313.47;;;19.51;44.60
19811;BME280;10065;49.632;8.346;2023-05-25T08:39:25;101315.69;;;19.62;45.01
19811;BME280;10065;49.632;8.346;2023-05-25T08:41:53;101324.13;;;19.74;45.13
19811;BME280;10065;49.632;8.346;2023-05-25T08:44:22;101317.78;;;19.81;45.19
19811;BME280;10065;49.632;8.346;2023-05-25T08:46:50;101317.06;;;19.87;44.77
19811;BME280;10065;49.632;8.346;2023-05-25T08:49:21;101312.41;;;19.96;44.38
19811;BME280;10065;49.632;8.346;2023-05-25T08:51:50;101320.16;;;20.06;44.07
19811;BME280;10065;49.632;8.346;2023-05-25T08:54:21;101326.47;;;20.13;44.02
19811;BME280;10065;49.632;8.346;2023-05-25T08:56:50;101318.66;;;20.18;43.57
19811;BME280;10065;49.632;8.346;2023-05-25T08:59:34;101323.25;;;20.24;43.55
19811;BME280;10065;49.632;8.346;2023-05-25T09:02:16;101328.47;;;20.40;44.14
19811;BME280;10065;49.632;8.346;2023-05-25T09:04:47;101314.47;;;20.51;43.55
19811;BME280;10065;49.632;8.346;2023-05-25T09:07:15;101329.09;;;20.63;43.22
19811;BME280;10065;49.632;8.346;2023-05-25T09:09:44;101321.25;;;20.69;43.34
19811;BME280;10065;49.632;8.346;2023-05-25T09:12:11;101317.59;;;20.76;43.28
19811;BME280;10065;49.632;8.346;2023-05-25T09:14:41;101320.16;;;20.84;43.28
19811;BME280;10065;49.632;8.346;2023-05-25T09:17:14;101315.84;;;20.90;43.28
19811;BME280;10065;49.632;8.346;2023-05-25T09:19:42;101324.44;;;21.00;43.13
19811;BME280;10065;49.632;8.346;2023-05-25T09:22:10;101327.00;;;21.08;43.40
19811;BME280;10065;49.632;8.346;2023-05-25T09:24:42;101318.75;;;21.16;43.04
19811;BME280;10065;49.632;8.346;2023-05-25T09:27:11;101321.97;;;21.26;42.98
19811;BME280;10065;49.632;8.346;2023-05-25T09:29:39;101323.47;;;21.35;42.10
19811;BME280;10065;49.632;8.346;2023-05-25T09:32:08;101321.00;;;21.40;42.10
19811;BME280;10065;49.632;8.346;2023-05-25T09:34:36;101321.84;;;21.41;41.73
19811;BME280;10065;49.632;8.346;2023-05-25T09:37:09;101323.53;;;21.49;41.94
19811;BME280;10065;49.632;8.346;2023-05-25T09:39:38;101320.69;;;21.57;41.14
19811;BME280;10065;49.632;8.346;2023-05-25T09:42:06;101324.88;;;21.66;41.32
19811;BME280;10065;49.632;8.346;2023-05-25T09:44:34;101320.34;;;21.73;40.71
19811;BME280;10065;49.632;8.346;2023-05-25T09:47:03;101321.00;;;21.82;40.53
19811;BME280;10065;49.632;8.346;2023-05-25T09:49:32;101328.31;;;21.88;41.07
19811;BME280;10065;49.632;8.346;2023-05-25T09:52:00;101321.72;;;21.97;41.15
19811;BME280;10065;49.632;8.346;2023-05-25T09:54:28;101325.50;;;22.02;39.89
19811;BME280;10065;49.632;8.346;2023-05-25T09:56:56;101317.19;;;22.10;39.94
19811;BME280;10065;49.632;8.346;2023-05-25T09:59:24;101321.78;;;22.17;39.89
19811;BME280;10065;49.632;8.346;2023-05-25T10:01:52;101316.22;;;22.25;40.19
19811;BME280;10065;49.632;8.346;2023-05-25T10:04:20;101325.94;;;22.19;39.81
19811;BME280;10065;49.632;8.346;2023-05-25T10:06:50;101318.09;;;22.31;39.88
19811;BME280;10065;49.632;8.346;2023-05-25T10:09:19;101308.75;;;22.46;40.14
19811;BME280;10065;49.632;8.346;2023-05-25T10:11:49;101329.78;;;22.51;39.91
19811;BME280;10065;49.632;8.346;2023-05-25T10:14:21;101323.94;;;22.54;40.26
19811;BME280;10065;49.632;8.346;2023-05-25T10:17:10;101333.97;;;22.60;39.63
19811;BME280;10065;49.632;8.346;2023-05-25T10:19:44;101333.97;;;22.67;38.14
19811;BME280;10065;49.632;8.346;2023-05-25T10:22:15;101341.06;;;22.74;37.53
19811;BME280;10065;49.632;8.346;2023-05-25T10:24:53;101324.00;;;22.80;37.29
19811;BME280;10065;49.632;8.346;2023-05-25T10:27:24;101333.16;;;22.93;37.70
19811;BME280;10065;49.632;8.346;2023-05-25T10:29:56;101333.38;;;23.04;37.42
19811;BME280;10065;49.632;8.346;2023-05-25T10:32:27;101334.81;;;23.13;37.80
19811;BME280;10065;49.632;8.346;2023-05-25T10:34:56;101329.63;;;22.99;37.11
19811;BME280;10065;49.632;8.346;2023-05-25T10:37:26;101322.72;;;23.22;36.63
19811;BME280;10065;49.632;8.346;2023-05-25T10:39:55;101320.84;;;23.30;36.28
19811;BME280;10065;49.632;8.346;2023-05-25T10:42:24;101325.00;;;23.39;35.75
19811;BME280;10065;49.632;8.346;2023-05-25T10:44:52;101320.19;;;23.47;35.92
19811;BME280;10065;49.632;8.346;2023-05-25T10:47:22;101315.41;;;23.49;35.65
19811;BME280;10065;49.632;8.346;2023-05-25T10:49:52;101312.06;;;23.60;35.32
19811;BME280;10065;49.632;8.346;2023-05-25T10:52:21;101309.31;;;23.74;35.55
19811;BME280;10065;49.632;8.346;2023-05-25T10:54:54;101299.66;;;23.84;35.73
19811;BME280;10065;49.632;8.346;2023-05-25T10:57:23;101296.94;;;23.91;35.67
19811;BME280;10065;49.632;8.346;2023-05-25T10:59:52;101301.06;;;24.00;35.25
19811;BME280;10065;49.632;8.346;2023-05-25T11:02:26;101304.94;;;24.11;34.63
19811;BME280;10065;49.632;8.346;2023-05-25T11:05:29;101303.88;;;24.18;34.72
19811;BME280;10065;49.632;8.346;2023-05-25T11:07:57;101299.66;;;24.29;34.39
19811;BME280;10065;49.632;8.346;2023-05-25T11:10:50;101301.06;;;24.38;34.59
19811;BME280;10065;49.632;8.346;2023-05-25T11:16:14;101298.91;;;24.47;34.48
19811;BME280;10065;49.632;8.346;2023-05-25T11:18:44;101298.91;;;24.47;33.61
19811;BME280;10065;49.632;8.346;2023-05-25T11:21:16;101300.94;;;24.58;33.39
19811;BME280;10065;49.632;8.346;2023-05-25T11:23:57;101292.09;;;24.69;32.56
19811;BME280;10065;49.632;8.346;2023-05-25T11:26:28;101292.69;;;24.71;33.00
19811;BME280;10065;49.632;8.346;2023-05-25T11:28:57;101293.75;;;24.70;32.78
19811;BME280;10065;49.632;8.346;2023-05-25T11:31:30;101295.78;;;24.74;32.74
19811;BME280;10065;49.632;8.346;2023-05-25T11:34:07;101292.34;;;24.86;33.50
19811;BME280;10065;49.632;8.346;2023-05-25T11:36:37;101294.00;;;24.93;32.81
19811;BME280;10065;49.632;8.346;2023-05-25T11:39:05;101292.72;;;24.96;33.34
19811;BME280;10065;49.632;8.346;2023-05-25T11:41:51;101286.81;;;24.99;32.09
19811;BME280;10065;49.632;8.346;2023-05-25T11:44:25;101274.34;;;24.98;32.03
19811;BME280;10065;49.632;8.346;2023-05-25T11:46:54;101286.47;;;24.95;32.17
19811;BME280;10065;49.632;8.346;2023-05-25T11:49:23;101279.91;;;24.78;32.56
19811;BME280;10065;49.632;8.346;2023-05-25T11:51:55;101269.56;;;24.68;33.42
19811;BME280;10065;49.632;8.346;2023-05-25T11:54:24;101275.81;;;24.69;33.44
19811;BME280;10065;49.632;8.346;2023-05-25T11:56:54;101276.66;;;24.69;33.53
19811;BME280;10065;49.632;8.346;2023-05-25T11:59:25;101281.25;;;24.69;32.75
19811;BME280;10065;49.632;8.346;2023-05-25T12:01:57;101271.88;;;24.65;32.67
19811;BME280;10065;49.632;8.346;2023-05-25T12:04:26;101276.38;;;24.53;33.11
19811;BME280;10065;49.632;8.346;2023-05-25T12:07:00;101273.59;;;24.34;33.83
19811;BME280;10065;49.632;8.346;2023-05-25T12:09:28;101269.09;;;24.15;34.04
19811;BME280;10065;49.632;8.346;2023-05-25T12:11:57;101281.06;;;24.01;34.09
19811;BME280;10065;49.632;8.346;2023-05-25T12:14:26;101273.59;;;23.90;34.77
19811;BME280;10065;49.632;8.346;2023-05-25T12:16:54;101277.41;;;23.82;34.89
19811;BME280;10065;49.632;8.346;2023-05-25T12:19:23;101267.44;;;23.70;35.31
19811;BME280;10065;49.632;8.346;2023-05-25T12:21:51;101261.47;;;23.54;35.95
19811;BME280;10065;49.632;8.346;2023-05-25T12:24:19;101260.84;;;23.46;36.22
19811;BME280;10065;49.632;8.346;2023-05-25T12:26:47;101256.91;;;23.42;36.23
19811;BME280;10065;49.632;8.346;2023-05-25T12:29:16;101254.63;;;23.39;35.99
19811;BME280;10065;49.632;8.346;2023-05-25T12:31:44;101253.19;;;23.36;36.36
19811;BME280;10065;49.632;8.346;2023-05-25T12:34:14;101256.50;;;23.32;36.64
19811;BME280;10065;49.632;8.346;2023-05-25T12:36:44;101248.63;;;23.23;36.39
19811;BME280;10065;49.632;8.346;2023-05-25T12:39:14;101238.66;;;23.17;36.61
19811;BME280;10065;49.632;8.346;2023-05-25T12:41:47;101236.59;;;23.13;36.96
19811;BME280;10065;49.632;8.346;2023-05-25T12:44:24;101248.25;;;23.07;37.31
19811;BME280;10065;49.632;8.346;2023-05-25T12:46:53;101231.81;;;23.08;37.36
19811;BME280;10065;49.632;8.346;2023-05-25T12:49:32;101238.25;;;23.14;37.76
19811;BME280;10065;49.632;8.346;2023-05-25T12:52:01;101234.72;;;23.20;38.01
19811;BME280;10065;49.632;8.346;2023-05-25T12:54:33;101229.91;;;23.15;37.39
19811;BME280;10065;49.632;8.346;2023-05-25T12:57:01;101229.06;;;23.28;37.66
19811;BME280;10065;49.632;8.346;2023-05-25T12:59:30;101225.06;;;23.37;37.75
19811;BME280;10065;49.632;8.346;2023-05-25T13:01:58;101221.28;;;23.45;37.21
19811;BME280;10065;49.632;8.346;2023-05-25T13:04:26;101220.66;;;23.49;37.41